1F0

Ardmore Downtown Executive Airport

Ardmore, Oklahoma, USA
METAR K1F0 211015Z AUTO 13004KT 10SM CLR 01/M03 A3012 RMK AO2
Observed Flight Rules
Jan-21 @ 10:15 UTC (28 minutes ago) Visual Flight Rules
Wind Visibility Clouds
130° at 4 knots 10 miles
  • Clear skies
Temperatures Readings
Current 1°C / 34°F
Dewpoint -3°C / 27°F
Humidity 75%
Altimeter 30.12" Hg
Pressure 1020.02 hPa
Elevation 257
METAR K1F0 211015Z AUTO 13004KT 10SM CLR 01/M03 A3012 RMK AO2
Observed Flight Rules
Jan-21 @ 10:15 UTC
(28 minutes ago)
VFR
Wind Visibility
130° at 4 knots 10 miles
Clouds
  • Clear skies
Temperature Dewpoint
1°C / 34°F -3°C / 27°F
Humidity Altimeter Pressure
75% 30.12" Hg 1020.02 hPa